This is the latest recevied weather packets stored in our database for station/object W8DRH-13. If no packets are shown the sender has not sent any weather packets the latest 10 day(s).
| Time | Temp. | Humidity | Pressure | Rain* | Wind** | Luminosity | Snow |
|---|---|---|---|---|---|---|---|
| 1777561776 | 7.22° C | 85% | 1013.1 hPa | 0 mm | - | 83 W/m² | - |
| 1777561472 | 7.78° C | 85% | 1012.8 hPa | 0 mm | - | 136 W/m² | - |
| 1777561167 | 7.78° C | 85% | 1012.9 hPa | 0 mm | - | 115 W/m² | - |
| 1777560862 | 7.78° C | 87% | 1012.7 hPa | 0 mm | - | 180 W/m² | - |
| 1777560560 | 7.22° C | 88% | 1012.8 hPa | 0 mm | - | 206 W/m² | - |
| 1777560258 | 7.22° C | 88% | 1012.5 hPa | 0 mm | - | 327 W/m² | - |
| 1777559955 | 7.22° C | 87% | 1012.8 hPa | 0 mm | - | 143 W/m² | - |
| 1777559650 | 7.78° C | 85% | 1012.7 hPa | 0 mm | - | 107 W/m² | - |
| 1777559348 | 7.78° C | 86% | 1012.5 hPa | 0 mm | - | 252 W/m² | - |
| 1777559044 | 7.22° C | 86% | 1012.8 hPa | 0 mm | - | 180 W/m² | - |
| 1777558739 | 7.22° C | 87% | 1012.5 hPa | 0 mm | - | 506 W/m² | - |
| 1777558435 | 7.22° C | 88% | 1012.5 hPa | 0 mm | - | 162 W/m² | - |
| 1777558131 | 7.22° C | 88% | 1012.5 hPa | 0 mm | - | 160 W/m² | - |
| 1777557828 | 6.67° C | 89% | 1012.5 hPa | 0 mm | - | 132 W/m² | - |
| 1777557525 | 6.67° C | 90% | 1012.4 hPa | 0 mm | - | 165 W/m² | - |
| 1777557221 | 6.67° C | 91% | 1012.4 hPa | 0 mm | - | 182 W/m² | - |
| 1777556917 | 6.67° C | 92% | 1012.3 hPa | 0 mm | - | 242 W/m² | - |
| 1777556612 | 6.11° C | 93% | 1012.1 hPa | 0 mm | - | 176 W/m² | - |
| 1777556307 | 6.11° C | 93% | 1012.4 hPa | 0 mm | - | 81 W/m² | - |
| 1777556003 | 6.11° C | 93% | 1012.1 hPa | 0 mm | - | 78 W/m² | - |
| 1777555698 | 6.11° C | 93% | 1012 hPa | 0 mm | - | 57 W/m² | - |
| 1777555395 | 6.11° C | 93% | 1012 hPa | 0 mm | - | 46 W/m² | - |
| 1777555091 | 6.11° C | 93% | 1012.2 hPa | 0 mm | - | 37 W/m² | - |
| 1777554789 | 5.56° C | 93% | 1012 hPa | 0 mm | - | 27 W/m² | - |
| 1777554486 | 6.11° C | 93% | 1012 hPa | 0 mm | - | 32 W/m² | - |
* Rain latest hour (hover to see other rain measurements)
** Current wind speed in m/s (hover to see current wind gust speed)